Time,TemperatureF,DewpointF,PressureIn,WindDirection,WindDirectionDegrees,WindSpeedMPH,WindSpeedGustMPH,Humidity,HourlyPrecipIn,Conditions,Clouds,dailyrainin,SoftwareType,DateUTC
2013-03-22 00:04:00,22.0,-99.9,-100.00,NW,307,10.0,13.0,-999,-99.99,,,-99.99,,2013-03-22 04:04:00,
2013-03-22 00:13:00,22.0,-99.9,-100.00,NW,307,10.0,13.0,-999,-99.99,,,-99.99,,2013-03-22 04:13:00,
2013-03-22 00:23:00,22.0,-99.9,-100.00,NW,307,10.0,13.0,-999,-99.99,,,-99.99,,2013-03-22 04:23:00,
2013-03-22 00:32:00,22.0,-99.9,-100.00,NW,307,10.0,13.0,-999,-99.99,,,-99.99,,2013-03-22 04:32:00,
2013-03-22 00:40:00,22.0,-99.9,-100.00,NW,304,13.0,15.0,-999,-99.99,,,-99.99,,2013-03-22 04:40:00,
2013-03-22 01:02:00,22.0,-99.9,-100.00,NW,304,13.0,15.0,-999,-99.99,,,-99.99,,2013-03-22 05:02:00,
2013-03-22 01:12:00,22.0,-99.9,-100.00,NW,304,13.0,15.0,-999,-99.99,,,-99.99,,2013-03-22 05:12:00,
2013-03-22 01:22:00,22.0,-99.9,-100.00,NW,304,13.0,15.0,-999,-99.99,,,-99.99,,2013-03-22 05:22:00,
2013-03-22 01:32:00,22.0,-99.9,-100.00,NW,304,13.0,15.0,-999,-99.99,,,-99.99,,2013-03-22 05:32:00,
2013-03-22 01:40:00,20.0,-99.9,-100.00,NW,305,13.0,17.0,-999,-99.99,,,-99.99,,2013-03-22 05:40:00,
2013-03-22 02:02:00,20.0,-99.9,-100.00,NW,305,13.0,17.0,-999,-99.99,,,-99.99,,2013-03-22 06:02:00,
2013-03-22 02:13:00,20.0,-99.9,-100.00,NW,305,13.0,17.0,-999,-99.99,,,-99.99,,2013-03-22 06:13:00,
2013-03-22 02:22:00,20.0,-99.9,-100.00,NW,305,13.0,17.0,-999,-99.99,,,-99.99,,2013-03-22 06:22:00,
2013-03-22 02:32:00,20.0,-99.9,-100.00,NW,305,13.0,17.0,-999,-99.99,,,-99.99,,2013-03-22 06:32:00,
2013-03-22 02:40:00,19.0,-99.9,-100.00,NW,315,8.0,12.0,-999,-99.99,,,-99.99,,2013-03-22 06:40:00,
2013-03-22 03:03:00,19.0,-99.9,-100.00,NW,315,8.0,12.0,-999,-99.99,,,-99.99,,2013-03-22 07:03:00,
2013-03-22 03:12:00,19.0,-99.9,-100.00,NW,315,8.0,12.0,-999,-99.99,,,-99.99,,2013-03-22 07:12:00,
2013-03-22 03:22:00,19.0,-99.9,-100.00,NW,315,8.0,12.0,-999,-99.99,,,-99.99,,2013-03-22 07:22:00,
2013-03-22 03:32:00,19.0,-99.9,-100.00,NW,315,8.0,12.0,-999,-99.99,,,-99.99,,2013-03-22 07:32:00,
2013-03-22 03:40:00,18.0,-99.9,-100.00,NW,312,8.0,13.0,-999,-99.99,,,-99.99,,2013-03-22 07:40:00,
2013-03-22 04:03:00,18.0,-99.9,-100.00,NW,312,8.0,13.0,-999,-99.99,,,-99.99,,2013-03-22 08:03:00,
2013-03-22 04:13:00,18.0,-99.9,-100.00,NW,312,8.0,13.0,-999,-99.99,,,-99.99,,2013-03-22 08:13:00,
2013-03-22 04:22:00,18.0,-99.9,-100.00,NW,312,8.0,13.0,-999,-99.99,,,-99.99,,2013-03-22 08:22:00,
2013-03-22 04:32:00,18.0,-99.9,-100.00,NW,312,8.0,13.0,-999,-99.99,,,-99.99,,2013-03-22 08:32:00,
2013-03-22 04:40:00,18.0,-99.9,-100.00,NW,314,9.0,12.0,-999,-99.99,,,-99.99,,2013-03-22 08:40:00,
2013-03-22 05:03:00,18.0,-99.9,-100.00,NW,314,9.0,12.0,-999,-99.99,,,-99.99,,2013-03-22 09:03:00,
2013-03-22 05:12:00,18.0,-99.9,-100.00,NW,314,9.0,12.0,-999,-99.99,,,-99.99,,2013-03-22 09:12:00,
2013-03-22 05:23:00,18.0,-99.9,-100.00,NW,314,9.0,12.0,-999,-99.99,,,-99.99,,2013-03-22 09:23:00,
2013-03-22 05:33:00,18.0,-99.9,-100.00,NW,314,9.0,12.0,-999,-99.99,,,-99.99,,2013-03-22 09:33:00,
2013-03-22 05:40:00,20.0,-99.9,-100.00,NW,308,10.0,13.0,-999,-99.99,,,-99.99,,2013-03-22 09:40:00,
2013-03-22 06:04:00,20.0,-99.9,-100.00,NW,308,10.0,13.0,-999,-99.99,,,-99.99,,2013-03-22 10:04:00,
2013-03-22 06:12:00,20.0,-99.9,-100.00,NW,308,10.0,13.0,-999,-99.99,,,-99.99,,2013-03-22 10:12:00,
2013-03-22 06:23:00,20.0,-99.9,-100.00,NW,308,10.0,13.0,-999,-99.99,,,-99.99,,2013-03-22 10:23:00,
2013-03-22 06:33:00,20.0,-99.9,-100.00,NW,308,10.0,13.0,-999,-99.99,,,-99.99,,2013-03-22 10:33:00,
2013-03-22 06:40:00,20.0,-99.9,-100.00,NW,308,6.0,11.0,-999,-99.99,,,-99.99,,2013-03-22 10:40:00,
2013-03-22 07:03:00,20.0,-99.9,-100.00,NW,308,6.0,11.0,-999,-99.99,,,-99.99,,2013-03-22 11:03:00,
2013-03-22 07:12:00,20.0,-99.9,-100.00,NW,308,6.0,11.0,-999,-99.99,,,-99.99,,2013-03-22 11:12:00,
2013-03-22 07:22:00,20.0,-99.9,-100.00,NW,308,6.0,11.0,-999,-99.99,,,-99.99,,2013-03-22 11:22:00,
2013-03-22 07:33:00,20.0,-99.9,-100.00,NW,308,6.0,11.0,-999,-99.99,,,-99.99,,2013-03-22 11:33:00,
2013-03-22 07:40:00,22.0,-99.9,-100.00,NW,310,10.0,14.0,-999,-99.99,,,-99.99,,2013-03-22 11:40:00,
2013-03-22 08:02:00,22.0,-99.9,-100.00,NW,310,10.0,14.0,-999,-99.99,,,-99.99,,2013-03-22 12:02:00,
2013-03-22 08:12:00,22.0,-99.9,-100.00,NW,310,10.0,14.0,-999,-99.99,,,-99.99,,2013-03-22 12:12:00,
2013-03-22 08:22:00,22.0,-99.9,-100.00,NW,310,10.0,14.0,-999,-99.99,,,-99.99,,2013-03-22 12:22:00,
2013-03-22 08:32:00,22.0,-99.9,-100.00,NW,310,10.0,14.0,-999,-99.99,,,-99.99,,2013-03-22 12:32:00,
2013-03-22 08:40:00,22.0,-99.9,-100.00,NW,307,7.0,10.0,-999,-99.99,,,-99.99,,2013-03-22 12:40:00,
2013-03-22 09:02:00,22.0,-99.9,-100.00,NW,307,7.0,10.0,-999,-99.99,,,-99.99,,2013-03-22 13:02:00,
2013-03-22 09:13:00,22.0,-99.9,-100.00,NW,307,7.0,10.0,-999,-99.99,,,-99.99,,2013-03-22 13:13:00,
2013-03-22 09:22:00,22.0,-99.9,-100.00,NW,307,7.0,10.0,-999,-99.99,,,-99.99,,2013-03-22 13:22:00,
2013-03-22 09:32:00,22.0,-99.9,-100.00,NW,307,7.0,10.0,-999,-99.99,,,-99.99,,2013-03-22 13:32:00,
2013-03-22 09:40:00,23.0,-99.9,-100.00,WNW,303,8.0,11.0,-999,-99.99,,,-99.99,,2013-03-22 13:40:00,
2013-03-22 10:03:00,23.0,-99.9,-100.00,WNW,303,8.0,11.0,-999,-99.99,,,-99.99,,2013-03-22 14:03:00,
2013-03-22 10:12:00,23.0,-99.9,-100.00,WNW,303,8.0,11.0,-999,-99.99,,,-99.99,,2013-03-22 14:12:00,
2013-03-22 10:22:00,23.0,-99.9,-100.00,WNW,303,8.0,11.0,-999,-99.99,,,-99.99,,2013-03-22 14:22:00,
2013-03-22 10:32:00,23.0,-99.9,-100.00,WNW,303,8.0,11.0,-999,-99.99,,,-99.99,,2013-03-22 14:32:00,
2013-03-22 10:40:00,25.0,-99.9,-100.00,WNW,293,12.0,14.0,-999,-99.99,,,-99.99,,2013-03-22 14:40:00,
2013-03-22 11:03:00,25.0,-99.9,-100.00,WNW,293,12.0,14.0,-999,-99.99,,,-99.99,,2013-03-22 15:03:00,
2013-03-22 11:12:00,25.0,-99.9,-100.00,WNW,293,12.0,14.0,-999,-99.99,,,-99.99,,2013-03-22 15:12:00,
2013-03-22 11:22:00,25.0,-99.9,-100.00,WNW,293,12.0,14.0,-999,-99.99,,,-99.99,,2013-03-22 15:22:00,
2013-03-22 11:33:00,25.0,-99.9,-100.00,WNW,293,12.0,14.0,-999,-99.99,,,-99.99,,2013-03-22 15:33:00,
2013-03-22 11:40:00,26.0,-99.9,-100.00,WNW,287,11.0,12.0,-999,-99.99,,,-99.99,,2013-03-22 15:40:00,
2013-03-22 12:03:00,26.0,-99.9,-100.00,WNW,287,11.0,12.0,-999,-99.99,,,-99.99,,2013-03-22 16:03:00,
2013-03-22 12:13:00,26.0,-99.9,-100.00,WNW,287,11.0,12.0,-999,-99.99,,,-99.99,,2013-03-22 16:13:00,
2013-03-22 12:23:00,26.0,-99.9,-100.00,WNW,287,11.0,12.0,-999,-99.99,,,-99.99,,2013-03-22 16:23:00,
2013-03-22 12:33:00,26.0,-99.9,-100.00,WNW,287,11.0,12.0,-999,-99.99,,,-99.99,,2013-03-22 16:33:00,
2013-03-22 12:40:00,31.0,-99.9,-100.00,West,266,11.0,12.0,-999,-99.99,,,-99.99,,2013-03-22 16:40:00,
2013-03-22 13:12:00,31.0,-99.9,-100.00,West,266,11.0,12.0,-999,-99.99,,,-99.99,,2013-03-22 17:12:00,
2013-03-22 13:23:00,31.0,-99.9,-100.00,West,266,11.0,12.0,-999,-99.99,,,-99.99,,2013-03-22 17:23:00,
2013-03-22 13:33:00,31.0,-99.9,-100.00,West,266,11.0,12.0,-999,-99.99,,,-99.99,,2013-03-22 17:33:00,
2013-03-22 13:40:00,31.0,-99.9,-100.00,West,281,10.0,14.0,-999,-99.99,,,-99.99,,2013-03-22 17:40:00,
2013-03-22 14:02:00,31.0,-99.9,-100.00,West,281,10.0,14.0,-999,-99.99,,,-99.99,,2013-03-22 18:02:00,
2013-03-22 14:12:00,31.0,-99.9,-100.00,West,281,10.0,14.0,-999,-99.99,,,-99.99,,2013-03-22 18:12:00,
2013-03-22 14:22:00,31.0,-99.9,-100.00,West,281,10.0,14.0,-999,-99.99,,,-99.99,,2013-03-22 18:22:00,
2013-03-22 14:33:00,31.0,-99.9,-100.00,West,281,10.0,14.0,-999,-99.99,,,-99.99,,2013-03-22 18:33:00,
2013-03-22 14:40:00,33.0,-99.9,-100.00,North,4,8.0,16.0,-999,-99.99,,,-99.99,,2013-03-22 18:40:00,
2013-03-22 15:02:00,33.0,-99.9,-100.00,North,4,8.0,16.0,-999,-99.99,,,-99.99,,2013-03-22 19:02:00,
2013-03-22 15:12:00,33.0,-99.9,-100.00,North,4,8.0,16.0,-999,-99.99,,,-99.99,,2013-03-22 19:12:00,
2013-03-22 15:22:00,33.0,-99.9,-100.00,North,4,8.0,16.0,-999,-99.99,,,-99.99,,2013-03-22 19:22:00,
2013-03-22 15:33:00,33.0,-99.9,-100.00,North,4,8.0,16.0,-999,-99.99,,,-99.99,,2013-03-22 19:33:00,
2013-03-22 15:40:00,34.0,-99.9,-100.00,NNW,333,8.0,15.0,-999,-99.99,,,-99.99,,2013-03-22 19:40:00,
2013-03-22 16:02:00,34.0,-99.9,-100.00,NNW,333,8.0,15.0,-999,-99.99,,,-99.99,,2013-03-22 20:02:00,
2013-03-22 16:13:00,34.0,-99.9,-100.00,NNW,333,8.0,15.0,-999,-99.99,,,-99.99,,2013-03-22 20:13:00,
2013-03-22 16:22:00,34.0,-99.9,-100.00,NNW,333,8.0,15.0,-999,-99.99,,,-99.99,,2013-03-22 20:22:00,
2013-03-22 16:32:00,34.0,-99.9,-100.00,NNW,333,8.0,15.0,-999,-99.99,,,-99.99,,2013-03-22 20:32:00,
2013-03-22 16:40:00,34.0,-99.9,-100.00,North,350,8.0,15.0,-999,-99.99,,,-99.99,,2013-03-22 20:40:00,
2013-03-22 17:03:00,34.0,-99.9,-100.00,North,350,8.0,15.0,-999,-99.99,,,-99.99,,2013-03-22 21:03:00,
2013-03-22 17:12:00,34.0,-99.9,-100.00,North,350,8.0,15.0,-999,-99.99,,,-99.99,,2013-03-22 21:12:00,
2013-03-22 17:22:00,34.0,-99.9,-100.00,North,350,8.0,15.0,-999,-99.99,,,-99.99,,2013-03-22 21:22:00,
2013-03-22 17:33:00,34.0,-99.9,-100.00,North,350,8.0,15.0,-999,-99.99,,,-99.99,,2013-03-22 21:33:00,
2013-03-22 17:40:00,33.0,-99.9,-100.00,NNW,327,9.0,15.0,-999,-99.99,,,-99.99,,2013-03-22 21:40:00,
2013-03-22 18:03:00,33.0,-99.9,-100.00,NNW,327,9.0,15.0,-999,-99.99,,,-99.99,,2013-03-22 22:03:00,
2013-03-22 18:13:00,33.0,-99.9,-100.00,NNW,327,9.0,15.0,-999,-99.99,,,-99.99,,2013-03-22 22:13:00,
2013-03-22 18:23:00,33.0,-99.9,-100.00,NNW,327,9.0,15.0,-999,-99.99,,,-99.99,,2013-03-22 22:23:00,
2013-03-22 18:32:00,33.0,-99.9,-100.00,NNW,327,9.0,15.0,-999,-99.99,,,-99.99,,2013-03-22 22:32:00,
2013-03-22 18:40:00,31.0,-99.9,-100.00,NNW,329,8.0,14.0,-999,-99.99,,,-99.99,,2013-03-22 22:40:00,
2013-03-22 19:02:00,31.0,-99.9,-100.00,NNW,329,8.0,14.0,-999,-99.99,,,-99.99,,2013-03-22 23:02:00,
2013-03-22 19:12:00,31.0,-99.9,-100.00,NNW,329,8.0,14.0,-999,-99.99,,,-99.99,,2013-03-22 23:12:00,
2013-03-22 19:23:00,31.0,-99.9,-100.00,NNW,329,8.0,14.0,-999,-99.99,,,-99.99,,2013-03-22 23:23:00,
2013-03-22 19:33:00,31.0,-99.9,-100.00,NNW,329,8.0,14.0,-999,-99.99,,,-99.99,,2013-03-22 23:33:00,
2013-03-22 19:40:00,30.0,-99.9,-100.00,North,353,5.0,12.0,-999,-99.99,,,-99.99,,2013-03-22 23:40:00,
2013-03-22 20:02:00,30.0,-99.9,-100.00,North,353,5.0,12.0,-999,-99.99,,,-99.99,,2013-03-23 00:02:00,
2013-03-22 20:12:00,30.0,-99.9,-100.00,North,353,5.0,12.0,-999,-99.99,,,-99.99,,2013-03-23 00:12:00,
2013-03-22 20:23:00,30.0,-99.9,-100.00,North,353,5.0,12.0,-999,-99.99,,,-99.99,,2013-03-23 00:23:00,
2013-03-22 20:33:00,30.0,-99.9,-100.00,North,353,5.0,12.0,-999,-99.99,,,-99.99,,2013-03-23 00:33:00,
2013-03-22 20:40:00,30.0,-99.9,-100.00,NNW,345,5.0,10.0,-999,-99.99,,,-99.99,,2013-03-23 00:40:00,
2013-03-22 21:04:00,30.0,-99.9,-100.00,NNW,345,5.0,10.0,-999,-99.99,,,-99.99,,2013-03-23 01:04:00,
2013-03-22 21:12:00,30.0,-99.9,-100.00,NNW,345,5.0,10.0,-999,-99.99,,,-99.99,,2013-03-23 01:12:00,
2013-03-22 21:22:00,30.0,-99.9,-100.00,NNW,345,5.0,10.0,-999,-99.99,,,-99.99,,2013-03-23 01:22:00,
2013-03-22 21:33:00,30.0,-99.9,-100.00,NNW,345,5.0,10.0,-999,-99.99,,,-99.99,,2013-03-23 01:33:00,
2013-03-22 21:40:00,28.0,-99.9,-100.00,NNE,16,7.0,11.0,-999,-99.99,,,-99.99,,2013-03-23 01:40:00,
2013-03-22 22:02:00,28.0,-99.9,-100.00,NNE,16,7.0,11.0,-999,-99.99,,,-99.99,,2013-03-23 02:02:00,
2013-03-22 22:13:00,28.0,-99.9,-100.00,NNE,16,7.0,11.0,-999,-99.99,,,-99.99,,2013-03-23 02:13:00,
2013-03-22 22:23:00,28.0,-99.9,-100.00,NNE,16,7.0,11.0,-999,-99.99,,,-99.99,,2013-03-23 02:23:00,
2013-03-22 22:32:00,28.0,-99.9,-100.00,NNE,16,7.0,11.0,-999,-99.99,,,-99.99,,2013-03-23 02:32:00,
2013-03-22 22:40:00,27.0,-99.9,-100.00,NNE,14,11.0,15.0,-999,-99.99,,,-99.99,,2013-03-23 02:40:00,
2013-03-22 23:03:00,27.0,-99.9,-100.00,NNE,14,11.0,15.0,-999,-99.99,,,-99.99,,2013-03-23 03:03:00,
2013-03-22 23:12:00,27.0,-99.9,-100.00,NNE,14,11.0,15.0,-999,-99.99,,,-99.99,,2013-03-23 03:12:00,
2013-03-22 23:23:00,27.0,-99.9,-100.00,NNE,14,11.0,15.0,-999,-99.99,,,-99.99,,2013-03-23 03:23:00,
2013-03-22 23:34:00,27.0,-99.9,-100.00,NNE,14,11.0,15.0,-999,-99.99,,,-99.99,,2013-03-23 03:34:00,
2013-03-22 23:40:00,25.0,-99.9,-100.00,NNE,13,9.0,16.0,-999,-99.99,,,-99.99,,2013-03-23 03:40:00,